sensor_id;sensor_type;location;lat;lon;timestamp;P1;durP1;ratioP1;P2;durP2;ratioP2
37483;SDS011;23337;52.212;9.926;2022-10-31T00:00:43;7.37;;;4.80;;
37483;SDS011;23337;52.212;9.926;2022-10-31T00:03:09;8.53;;;4.30;;
37483;SDS011;23337;52.212;9.926;2022-10-31T00:05:35;6.10;;;4.30;;
37483;SDS011;23337;52.212;9.926;2022-10-31T00:08:01;7.17;;;4.50;;
37483;SDS011;23337;52.212;9.926;2022-10-31T00:10:27;7.67;;;4.47;;
37483;SDS011;23337;52.212;9.926;2022-10-31T00:12:53;9.13;;;5.03;;
37483;SDS011;23337;52.212;9.926;2022-10-31T00:15:19;5.97;;;3.63;;
37483;SDS011;23337;52.212;9.926;2022-10-31T00:17:45;9.27;;;4.53;;
37483;SDS011;23337;52.212;9.926;2022-10-31T00:20:10;9.17;;;4.60;;
37483;SDS011;23337;52.212;9.926;2022-10-31T00:22:36;7.10;;;4.87;;
37483;SDS011;23337;52.212;9.926;2022-10-31T00:25:02;6.63;;;4.33;;
37483;SDS011;23337;52.212;9.926;2022-10-31T00:27:28;11.00;;;4.93;;
37483;SDS011;23337;52.212;9.926;2022-10-31T00:29:54;9.17;;;4.50;;
37483;SDS011;23337;52.212;9.926;2022-10-31T00:32:20;6.90;;;3.73;;
37483;SDS011;23337;52.212;9.926;2022-10-31T00:34:46;5.83;;;4.27;;
37483;SDS011;23337;52.212;9.926;2022-10-31T00:37:12;9.30;;;4.23;;
37483;SDS011;23337;52.212;9.926;2022-10-31T00:39:38;7.73;;;5.00;;
37483;SDS011;23337;52.212;9.926;2022-10-31T00:42:04;9.27;;;4.40;;
37483;SDS011;23337;52.212;9.926;2022-10-31T00:44:30;8.63;;;4.50;;
37483;SDS011;23337;52.212;9.926;2022-10-31T00:46:56;7.50;;;4.87;;
37483;SDS011;23337;52.212;9.926;2022-10-31T00:49:22;9.60;;;4.90;;
37483;SDS011;23337;52.212;9.926;2022-10-31T00:51:48;6.17;;;4.40;;
37483;SDS011;23337;52.212;9.926;2022-10-31T00:54:14;11.00;;;5.90;;
37483;SDS011;23337;52.212;9.926;2022-10-31T00:56:40;11.07;;;5.90;;
37483;SDS011;23337;52.212;9.926;2022-10-31T00:59:05;7.07;;;5.93;;
37483;SDS011;23337;52.212;9.926;2022-10-31T01:01:31;8.03;;;5.23;;
37483;SDS011;23337;52.212;9.926;2022-10-31T01:03:57;6.50;;;5.67;;
37483;SDS011;23337;52.212;9.926;2022-10-31T01:06:23;11.57;;;6.40;;
37483;SDS011;23337;52.212;9.926;2022-10-31T01:08:49;11.73;;;6.03;;
37483;SDS011;23337;52.212;9.926;2022-10-31T01:11:16;11.63;;;6.73;;
37483;SDS011;23337;52.212;9.926;2022-10-31T01:13:43;14.83;;;6.90;;
37483;SDS011;23337;52.212;9.926;2022-10-31T01:16:11;9.70;;;6.10;;
37483;SDS011;23337;52.212;9.926;2022-10-31T01:18:37;10.43;;;6.37;;
37483;SDS011;23337;52.212;9.926;2022-10-31T01:21:04;10.23;;;5.97;;
37483;SDS011;23337;52.212;9.926;2022-10-31T01:23:30;10.40;;;6.40;;
37483;SDS011;23337;52.212;9.926;2022-10-31T01:26:04;11.87;;;5.53;;
37483;SDS011;23337;52.212;9.926;2022-10-31T01:28:31;11.67;;;6.33;;
37483;SDS011;23337;52.212;9.926;2022-10-31T01:31:00;11.60;;;6.97;;
37483;SDS011;23337;52.212;9.926;2022-10-31T01:33:26;13.97;;;8.10;;
37483;SDS011;23337;52.212;9.926;2022-10-31T01:35:52;12.70;;;6.23;;
37483;SDS011;23337;52.212;9.926;2022-10-31T01:38:18;14.03;;;7.10;;
37483;SDS011;23337;52.212;9.926;2022-10-31T01:40:44;12.20;;;6.97;;
37483;SDS011;23337;52.212;9.926;2022-10-31T01:43:13;10.43;;;7.30;;
37483;SDS011;23337;52.212;9.926;2022-10-31T01:45:40;11.87;;;6.93;;
37483;SDS011;23337;52.212;9.926;2022-10-31T01:48:10;10.17;;;6.70;;
37483;SDS011;23337;52.212;9.926;2022-10-31T01:50:38;9.37;;;6.50;;
37483;SDS011;23337;52.212;9.926;2022-10-31T01:53:04;14.50;;;8.27;;
37483;SDS011;23337;52.212;9.926;2022-10-31T01:55:32;15.63;;;8.40;;
37483;SDS011;23337;52.212;9.926;2022-10-31T01:58:02;8.57;;;7.43;;
37483;SDS011;23337;52.212;9.926;2022-10-31T02:00:30;12.73;;;7.57;;
37483;SDS011;23337;52.212;9.926;2022-10-31T02:02:56;12.40;;;8.73;;
37483;SDS011;23337;52.212;9.926;2022-10-31T02:05:22;17.40;;;7.87;;
37483;SDS011;23337;52.212;9.926;2022-10-31T02:07:55;10.90;;;8.27;;
37483;SDS011;23337;52.212;9.926;2022-10-31T02:10:22;12.27;;;7.80;;
37483;SDS011;23337;52.212;9.926;2022-10-31T02:12:51;14.00;;;8.20;;
37483;SDS011;23337;52.212;9.926;2022-10-31T02:15:19;16.50;;;9.30;;
37483;SDS011;23337;52.212;9.926;2022-10-31T02:17:45;15.73;;;9.27;;
37483;SDS011;23337;52.212;9.926;2022-10-31T02:20:20;22.60;;;8.80;;
37483;SDS011;23337;52.212;9.926;2022-10-31T02:33:15;15.97;;;9.50;;
37483;SDS011;23337;52.212;9.926;2022-10-31T02:43:16;21.67;;;11.90;;
37483;SDS011;23337;52.212;9.926;2022-10-31T02:48:12;24.47;;;13.43;;
37483;SDS011;23337;52.212;9.926;2022-10-31T02:50:41;20.20;;;12.97;;
37483;SDS011;23337;52.212;9.926;2022-10-31T02:53:09;19.07;;;12.10;;
37483;SDS011;23337;52.212;9.926;2022-10-31T02:58:02;19.03;;;13.17;;
37483;SDS011;23337;52.212;9.926;2022-10-31T03:00:30;19.57;;;11.70;;
37483;SDS011;23337;52.212;9.926;2022-10-31T03:13:00;21.60;;;12.53;;
37483;SDS011;23337;52.212;9.926;2022-10-31T03:15:28;14.17;;;10.90;;
37483;SDS011;23337;52.212;9.926;2022-10-31T03:20:27;20.13;;;12.23;;
37483;SDS011;23337;52.212;9.926;2022-10-31T03:22:55;15.27;;;10.83;;
37483;SDS011;23337;52.212;9.926;2022-10-31T03:25:22;15.57;;;11.20;;
37483;SDS011;23337;52.212;9.926;2022-10-31T03:27:48;17.80;;;12.23;;
37483;SDS011;23337;52.212;9.926;2022-10-31T03:30:14;16.00;;;10.93;;
37483;SDS011;23337;52.212;9.926;2022-10-31T03:32:43;16.50;;;11.83;;
37483;SDS011;23337;52.212;9.926;2022-10-31T03:35:10;14.03;;;11.30;;
37483;SDS011;23337;52.212;9.926;2022-10-31T03:37:38;17.50;;;11.27;;
37483;SDS011;23337;52.212;9.926;2022-10-31T03:40:06;16.37;;;11.13;;
37483;SDS011;23337;52.212;9.926;2022-10-31T03:42:34;19.27;;;11.83;;
37483;SDS011;23337;52.212;9.926;2022-10-31T03:45:06;18.40;;;12.37;;
37483;SDS011;23337;52.212;9.926;2022-10-31T03:47:34;17.20;;;11.50;;
37483;SDS011;23337;52.212;9.926;2022-10-31T03:50:01;19.23;;;12.00;;
37483;SDS011;23337;52.212;9.926;2022-10-31T03:52:33;17.97;;;12.73;;
37483;SDS011;23337;52.212;9.926;2022-10-31T03:55:05;19.80;;;12.43;;
37483;SDS011;23337;52.212;9.926;2022-10-31T03:57:35;16.73;;;11.93;;
37483;SDS011;23337;52.212;9.926;2022-10-31T04:00:05;15.67;;;12.30;;
37483;SDS011;23337;52.212;9.926;2022-10-31T04:02:33;16.83;;;11.57;;
37483;SDS011;23337;52.212;9.926;2022-10-31T04:05:00;20.50;;;12.20;;
37483;SDS011;23337;52.212;9.926;2022-10-31T04:07:28;19.10;;;13.30;;
37483;SDS011;23337;52.212;9.926;2022-10-31T04:09:55;16.87;;;11.70;;
37483;SDS011;23337;52.212;9.926;2022-10-31T04:12:22;19.03;;;11.50;;
37483;SDS011;23337;52.212;9.926;2022-10-31T04:14:49;19.93;;;13.57;;
37483;SDS011;23337;52.212;9.926;2022-10-31T04:17:16;19.83;;;12.10;;
37483;SDS011;23337;52.212;9.926;2022-10-31T04:19:44;21.13;;;13.83;;
37483;SDS011;23337;52.212;9.926;2022-10-31T04:22:10;22.40;;;13.37;;
37483;SDS011;23337;52.212;9.926;2022-10-31T04:24:36;20.30;;;12.50;;
37483;SDS011;23337;52.212;9.926;2022-10-31T04:27:04;18.23;;;12.87;;
37483;SDS011;23337;52.212;9.926;2022-10-31T04:29:30;17.80;;;12.73;;
37483;SDS011;23337;52.212;9.926;2022-10-31T04:31:56;23.70;;;13.37;;
37483;SDS011;23337;52.212;9.926;2022-10-31T04:34:22;21.80;;;14.57;;
37483;SDS011;23337;52.212;9.926;2022-10-31T04:36:48;20.27;;;14.13;;
37483;SDS011;23337;52.212;9.926;2022-10-31T04:39:13;24.57;;;14.60;;
37483;SDS011;23337;52.212;9.926;2022-10-31T04:41:39;21.20;;;13.73;;
37483;SDS011;23337;52.212;9.926;2022-10-31T04:44:05;21.50;;;14.60;;
37483;SDS011;23337;52.212;9.926;2022-10-31T04:46:31;21.90;;;14.37;;
37483;SDS011;23337;52.212;9.926;2022-10-31T04:48:57;20.00;;;14.37;;
37483;SDS011;23337;52.212;9.926;2022-10-31T04:51:23;25.67;;;15.13;;
37483;SDS011;23337;52.212;9.926;2022-10-31T04:53:50;23.10;;;15.27;;
37483;SDS011;23337;52.212;9.926;2022-10-31T04:56:16;28.10;;;16.13;;
37483;SDS011;23337;52.212;9.926;2022-10-31T04:58:42;24.57;;;15.80;;
37483;SDS011;23337;52.212;9.926;2022-10-31T05:01:09;25.10;;;14.43;;
37483;SDS011;23337;52.212;9.926;2022-10-31T05:03:35;21.73;;;15.20;;
37483;SDS011;23337;52.212;9.926;2022-10-31T05:06:01;20.73;;;15.33;;
37483;SDS011;23337;52.212;9.926;2022-10-31T05:08:27;20.43;;;15.27;;
37483;SDS011;23337;52.212;9.926;2022-10-31T05:10:52;27.47;;;15.53;;
37483;SDS011;23337;52.212;9.926;2022-10-31T05:13:18;22.53;;;14.87;;
37483;SDS011;23337;52.212;9.926;2022-10-31T05:15:44;24.70;;;16.90;;
37483;SDS011;23337;52.212;9.926;2022-10-31T05:18:10;27.77;;;16.10;;
37483;SDS011;23337;52.212;9.926;2022-10-31T05:20:36;20.37;;;14.90;;
37483;SDS011;23337;52.212;9.926;2022-10-31T05:23:02;26.77;;;14.57;;
37483;SDS011;23337;52.212;9.926;2022-10-31T05:25:28;20.67;;;15.47;;
37483;SDS011;23337;52.212;9.926;2022-10-31T05:27:54;23.83;;;15.20;;
37483;SDS011;23337;52.212;9.926;2022-10-31T05:30:22;23.70;;;14.73;;
37483;SDS011;23337;52.212;9.926;2022-10-31T05:32:49;22.70;;;15.40;;
37483;SDS011;23337;52.212;9.926;2022-10-31T05:35:23;20.37;;;12.87;;
37483;SDS011;23337;52.212;9.926;2022-10-31T05:37:49;22.57;;;14.40;;
37483;SDS011;23337;52.212;9.926;2022-10-31T05:40:16;18.63;;;12.43;;
37483;SDS011;23337;52.212;9.926;2022-10-31T05:42:43;20.17;;;14.33;;
37483;SDS011;23337;52.212;9.926;2022-10-31T05:45:10;20.23;;;13.73;;
37483;SDS011;23337;52.212;9.926;2022-10-31T05:47:36;21.43;;;13.17;;
37483;SDS011;23337;52.212;9.926;2022-10-31T05:50:02;21.50;;;13.50;;
37483;SDS011;23337;52.212;9.926;2022-10-31T05:52:28;20.00;;;13.03;;
37483;SDS011;23337;52.212;9.926;2022-10-31T05:54:54;20.53;;;13.30;;
37483;SDS011;23337;52.212;9.926;2022-10-31T05:57:20;19.97;;;13.80;;
37483;SDS011;23337;52.212;9.926;2022-10-31T05:59:46;17.83;;;11.73;;
37483;SDS011;23337;52.212;9.926;2022-10-31T06:02:12;22.67;;;13.50;;
37483;SDS011;23337;52.212;9.926;2022-10-31T06:04:38;18.63;;;12.60;;
37483;SDS011;23337;52.212;9.926;2022-10-31T06:07:04;22.67;;;13.03;;
37483;SDS011;23337;52.212;9.926;2022-10-31T06:09:30;25.50;;;12.77;;
37483;SDS011;23337;52.212;9.926;2022-10-31T06:11:56;18.07;;;11.73;;
37483;SDS011;23337;52.212;9.926;2022-10-31T06:14:22;19.37;;;12.30;;
37483;SDS011;23337;52.212;9.926;2022-10-31T06:16:48;20.93;;;11.67;;
37483;SDS011;23337;52.212;9.926;2022-10-31T06:19:14;14.50;;;11.13;;
37483;SDS011;23337;52.212;9.926;2022-10-31T06:21:39;16.07;;;11.73;;
37483;SDS011;23337;52.212;9.926;2022-10-31T06:24:05;18.17;;;11.67;;
37483;SDS011;23337;52.212;9.926;2022-10-31T06:26:31;16.30;;;11.23;;
37483;SDS011;23337;52.212;9.926;2022-10-31T06:28:57;17.57;;;11.57;;
37483;SDS011;23337;52.212;9.926;2022-10-31T06:31:23;15.97;;;11.40;;
37483;SDS011;23337;52.212;9.926;2022-10-31T06:33:49;19.40;;;11.23;;
37483;SDS011;23337;52.212;9.926;2022-10-31T06:36:15;19.17;;;11.87;;
37483;SDS011;23337;52.212;9.926;2022-10-31T06:38:41;20.33;;;11.73;;
37483;SDS011;23337;52.212;9.926;2022-10-31T06:41:07;14.20;;;10.67;;
37483;SDS011;23337;52.212;9.926;2022-10-31T06:43:33;20.17;;;11.40;;
37483;SDS011;23337;52.212;9.926;2022-10-31T06:46:02;21.93;;;11.30;;
37483;SDS011;23337;52.212;9.926;2022-10-31T06:48:28;17.07;;;11.30;;
37483;SDS011;23337;52.212;9.926;2022-10-31T06:50:57;15.07;;;10.43;;
37483;SDS011;23337;52.212;9.926;2022-10-31T06:53:23;18.60;;;10.83;;
37483;SDS011;23337;52.212;9.926;2022-10-31T06:55:49;18.77;;;11.50;;
37483;SDS011;23337;52.212;9.926;2022-10-31T06:58:15;15.77;;;11.50;;
37483;SDS011;23337;52.212;9.926;2022-10-31T07:00:41;16.90;;;11.37;;
37483;SDS011;23337;52.212;9.926;2022-10-31T07:03:11;14.90;;;10.70;;
37483;SDS011;23337;52.212;9.926;2022-10-31T07:05:37;20.03;;;11.20;;
37483;SDS011;23337;52.212;9.926;2022-10-31T07:08:04;17.70;;;11.70;;
37483;SDS011;23337;52.212;9.926;2022-10-31T07:10:31;16.43;;;10.93;;
37483;SDS011;23337;52.212;9.926;2022-10-31T07:12:58;19.60;;;12.23;;
37483;SDS011;23337;52.212;9.926;2022-10-31T07:15:25;17.30;;;12.43;;
37483;SDS011;23337;52.212;9.926;2022-10-31T07:17:51;17.50;;;11.90;;
37483;SDS011;23337;52.212;9.926;2022-10-31T07:20:17;18.50;;;11.63;;
37483;SDS011;23337;52.212;9.926;2022-10-31T07:22:43;18.33;;;12.37;;
37483;SDS011;23337;52.212;9.926;2022-10-31T07:25:10;21.53;;;12.47;;
37483;SDS011;23337;52.212;9.926;2022-10-31T07:27:39;18.73;;;13.07;;
37483;SDS011;23337;52.212;9.926;2022-10-31T07:30:06;21.67;;;13.17;;
37483;SDS011;23337;52.212;9.926;2022-10-31T07:32:39;20.53;;;13.47;;
37483;SDS011;23337;52.212;9.926;2022-10-31T07:35:06;19.27;;;12.73;;
37483;SDS011;23337;52.212;9.926;2022-10-31T07:37:32;20.37;;;13.23;;
37483;SDS011;23337;52.212;9.926;2022-10-31T07:39:58;21.53;;;12.80;;
37483;SDS011;23337;52.212;9.926;2022-10-31T07:42:24;20.23;;;12.13;;
37483;SDS011;23337;52.212;9.926;2022-10-31T07:44:50;21.93;;;13.00;;
37483;SDS011;23337;52.212;9.926;2022-10-31T07:47:16;21.50;;;12.10;;
37483;SDS011;23337;52.212;9.926;2022-10-31T07:49:42;22.30;;;13.67;;
37483;SDS011;23337;52.212;9.926;2022-10-31T07:52:07;19.57;;;13.37;;
37483;SDS011;23337;52.212;9.926;2022-10-31T07:54:33;21.13;;;13.50;;
37483;SDS011;23337;52.212;9.926;2022-10-31T07:56:59;21.00;;;14.50;;
37483;SDS011;23337;52.212;9.926;2022-10-31T07:59:25;20.63;;;14.20;;
37483;SDS011;23337;52.212;9.926;2022-10-31T08:01:52;21.67;;;13.70;;
37483;SDS011;23337;52.212;9.926;2022-10-31T08:04:18;19.13;;;14.47;;
37483;SDS011;23337;52.212;9.926;2022-10-31T08:06:44;22.17;;;14.77;;
37483;SDS011;23337;52.212;9.926;2022-10-31T08:09:10;22.33;;;14.50;;
37483;SDS011;23337;52.212;9.926;2022-10-31T08:11:36;22.37;;;14.53;;
37483;SDS011;23337;52.212;9.926;2022-10-31T08:14:01;20.40;;;13.30;;
37483;SDS011;23337;52.212;9.926;2022-10-31T08:16:27;20.77;;;14.23;;
37483;SDS011;23337;52.212;9.926;2022-10-31T08:18:53;22.23;;;12.73;;
37483;SDS011;23337;52.212;9.926;2022-10-31T08:21:20;19.07;;;13.57;;
37483;SDS011;23337;52.212;9.926;2022-10-31T08:23:46;19.90;;;13.70;;
37483;SDS011;23337;52.212;9.926;2022-10-31T08:26:12;28.10;;;13.83;;
37483;SDS011;23337;52.212;9.926;2022-10-31T08:28:38;22.43;;;13.83;;
37483;SDS011;23337;52.212;9.926;2022-10-31T08:31:04;18.57;;;12.70;;
37483;SDS011;23337;52.212;9.926;2022-10-31T08:33:30;19.00;;;14.30;;
37483;SDS011;23337;52.212;9.926;2022-10-31T08:36:00;22.37;;;13.70;;
37483;SDS011;23337;52.212;9.926;2022-10-31T08:38:25;22.00;;;14.67;;
37483;SDS011;23337;52.212;9.926;2022-10-31T08:40:51;16.87;;;13.23;;
37483;SDS011;23337;52.212;9.926;2022-10-31T08:43:17;20.67;;;13.47;;
37483;SDS011;23337;52.212;9.926;2022-10-31T08:45:44;16.80;;;13.57;;
37483;SDS011;23337;52.212;9.926;2022-10-31T08:48:13;24.07;;;14.27;;
37483;SDS011;23337;52.212;9.926;2022-10-31T08:50:40;20.20;;;14.00;;
37483;SDS011;23337;52.212;9.926;2022-10-31T08:53:06;21.97;;;14.23;;
37483;SDS011;23337;52.212;9.926;2022-10-31T08:55:33;22.17;;;14.50;;
37483;SDS011;23337;52.212;9.926;2022-10-31T08:58:00;28.67;;;14.07;;
37483;SDS011;23337;52.212;9.926;2022-10-31T09:00:26;20.33;;;14.67;;
37483;SDS011;23337;52.212;9.926;2022-10-31T09:02:56;18.70;;;13.87;;
37483;SDS011;23337;52.212;9.926;2022-10-31T09:05:22;16.63;;;11.73;;
37483;SDS011;23337;52.212;9.926;2022-10-31T09:07:48;19.80;;;13.47;;
37483;SDS011;23337;52.212;9.926;2022-10-31T09:10:14;20.83;;;13.80;;
37483;SDS011;23337;52.212;9.926;2022-10-31T09:12:40;20.87;;;14.67;;
37483;SDS011;23337;52.212;9.926;2022-10-31T09:15:06;21.60;;;15.93;;
37483;SDS011;23337;52.212;9.926;2022-10-31T09:17:32;27.03;;;14.53;;
37483;SDS011;23337;52.212;9.926;2022-10-31T09:19:58;25.73;;;14.60;;
37483;SDS011;23337;52.212;9.926;2022-10-31T09:22:24;19.60;;;15.27;;
37483;SDS011;23337;52.212;9.926;2022-10-31T09:24:50;25.03;;;16.03;;
37483;SDS011;23337;52.212;9.926;2022-10-31T09:27:16;21.83;;;15.23;;
37483;SDS011;23337;52.212;9.926;2022-10-31T09:29:42;20.03;;;14.33;;
37483;SDS011;23337;52.212;9.926;2022-10-31T09:32:08;19.43;;;13.90;;
37483;SDS011;23337;52.212;9.926;2022-10-31T09:34:34;22.57;;;13.83;;
37483;SDS011;23337;52.212;9.926;2022-10-31T09:37:00;19.07;;;14.03;;
37483;SDS011;23337;52.212;9.926;2022-10-31T09:39:26;16.53;;;12.87;;
37483;SDS011;23337;52.212;9.926;2022-10-31T09:52:20;18.43;;;12.30;;
37483;SDS011;23337;52.212;9.926;2022-10-31T09:54:49;24.17;;;13.27;;
37483;SDS011;23337;52.212;9.926;2022-10-31T09:57:18;19.67;;;11.73;;
37483;SDS011;23337;52.212;9.926;2022-10-31T09:59:46;19.20;;;11.30;;
37483;SDS011;23337;52.212;9.926;2022-10-31T10:04:40;24.47;;;13.03;;
37483;SDS011;23337;52.212;9.926;2022-10-31T10:07:11;20.27;;;12.33;;
37483;SDS011;23337;52.212;9.926;2022-10-31T10:09:40;20.97;;;13.00;;
37483;SDS011;23337;52.212;9.926;2022-10-31T10:12:15;23.87;;;13.47;;
37483;SDS011;23337;52.212;9.926;2022-10-31T10:15:09;24.50;;;14.20;;
37483;SDS011;23337;52.212;9.926;2022-10-31T10:17:34;18.40;;;12.93;;
37483;SDS011;23337;52.212;9.926;2022-10-31T10:20:15;21.63;;;12.57;;
37483;SDS011;23337;52.212;9.926;2022-10-31T10:25:23;20.70;;;12.37;;
37483;SDS011;23337;52.212;9.926;2022-10-31T10:33:12;16.83;;;11.27;;
37483;SDS011;23337;52.212;9.926;2022-10-31T10:35:40;18.40;;;10.73;;
37483;SDS011;23337;52.212;9.926;2022-10-31T10:38:14;18.40;;;10.53;;
37483;SDS011;23337;52.212;9.926;2022-10-31T10:40:41;17.43;;;10.20;;
37483;SDS011;23337;52.212;9.926;2022-10-31T10:45:49;18.73;;;10.07;;
37483;SDS011;23337;52.212;9.926;2022-10-31T10:48:42;14.07;;;9.60;;
37483;SDS011;23337;52.212;9.926;2022-10-31T10:51:18;16.77;;;9.60;;
37483;SDS011;23337;52.212;9.926;2022-10-31T10:59:03;17.87;;;9.07;;
37483;SDS011;23337;52.212;9.926;2022-10-31T11:01:29;16.20;;;9.17;;
37483;SDS011;23337;52.212;9.926;2022-10-31T11:03:55;14.50;;;9.00;;
37483;SDS011;23337;52.212;9.926;2022-10-31T11:06:22;16.27;;;8.33;;
37483;SDS011;23337;52.212;9.926;2022-10-31T11:08:51;14.23;;;8.03;;
37483;SDS011;23337;52.212;9.926;2022-10-31T11:13:44;12.73;;;8.10;;
37483;SDS011;23337;52.212;9.926;2022-10-31T11:16:14;8.77;;;6.20;;
37483;SDS011;23337;52.212;9.926;2022-10-31T11:18:42;13.23;;;7.40;;
37483;SDS011;23337;52.212;9.926;2022-10-31T11:21:19;13.07;;;7.23;;
37483;SDS011;23337;52.212;9.926;2022-10-31T11:23:45;14.10;;;6.60;;
37483;SDS011;23337;52.212;9.926;2022-10-31T11:26:18;10.70;;;6.50;;
37483;SDS011;23337;52.212;9.926;2022-10-31T11:28:55;11.77;;;6.90;;
37483;SDS011;23337;52.212;9.926;2022-10-31T11:31:21;15.73;;;6.20;;
37483;SDS011;23337;52.212;9.926;2022-10-31T11:33:48;11.83;;;7.63;;
37483;SDS011;23337;52.212;9.926;2022-10-31T11:36:16;12.63;;;6.83;;
37483;SDS011;23337;52.212;9.926;2022-10-31T11:38:44;11.80;;;6.40;;
37483;SDS011;23337;52.212;9.926;2022-10-31T11:41:14;13.07;;;6.50;;
37483;SDS011;23337;52.212;9.926;2022-10-31T11:43:52;10.87;;;6.47;;
37483;SDS011;23337;52.212;9.926;2022-10-31T11:48:54;11.63;;;7.13;;
37483;SDS011;23337;52.212;9.926;2022-10-31T11:51:22;12.10;;;8.13;;
37483;SDS011;23337;52.212;9.926;2022-10-31T11:53:53;16.33;;;8.90;;
37483;SDS011;23337;52.212;9.926;2022-10-31T11:56:20;12.80;;;7.73;;
37483;SDS011;23337;52.212;9.926;2022-10-31T11:58:56;15.13;;;8.20;;
37483;SDS011;23337;52.212;9.926;2022-10-31T12:01:26;14.80;;;7.53;;
37483;SDS011;23337;52.212;9.926;2022-10-31T12:04:08;15.53;;;8.20;;
37483;SDS011;23337;52.212;9.926;2022-10-31T12:06:35;19.40;;;8.07;;
37483;SDS011;23337;52.212;9.926;2022-10-31T12:09:02;13.77;;;7.40;;
37483;SDS011;23337;52.212;9.926;2022-10-31T12:16:24;11.63;;;7.43;;
37483;SDS011;23337;52.212;9.926;2022-10-31T12:19:06;15.33;;;8.43;;
37483;SDS011;23337;52.212;9.926;2022-10-31T12:24:35;11.40;;;8.10;;
37483;SDS011;23337;52.212;9.926;2022-10-31T12:27:24;12.40;;;7.70;;
37483;SDS011;23337;52.212;9.926;2022-10-31T12:30:11;15.70;;;8.30;;
37483;SDS011;23337;52.212;9.926;2022-10-31T12:48:00;16.63;;;8.70;;
37483;SDS011;23337;52.212;9.926;2022-10-31T12:53:19;12.80;;;7.87;;
37483;SDS011;23337;52.212;9.926;2022-10-31T12:58:17;16.10;;;8.37;;
37483;SDS011;23337;52.212;9.926;2022-10-31T13:00:46;16.70;;;10.40;;
37483;SDS011;23337;52.212;9.926;2022-10-31T13:03:22;16.30;;;9.17;;
37483;SDS011;23337;52.212;9.926;2022-10-31T13:05:51;14.70;;;9.03;;
37483;SDS011;23337;52.212;9.926;2022-10-31T13:08:19;17.07;;;9.00;;
37483;SDS011;23337;52.212;9.926;2022-10-31T13:15:51;14.67;;;8.50;;
37483;SDS011;23337;52.212;9.926;2022-10-31T13:18:25;17.53;;;10.17;;
37483;SDS011;23337;52.212;9.926;2022-10-31T13:20:52;15.90;;;10.60;;
37483;SDS011;23337;52.212;9.926;2022-10-31T13:23:29;16.70;;;10.27;;
37483;SDS011;23337;52.212;9.926;2022-10-31T13:25:56;17.77;;;10.33;;
37483;SDS011;23337;52.212;9.926;2022-10-31T13:30:52;19.87;;;11.27;;
37483;SDS011;23337;52.212;9.926;2022-10-31T13:33:35;18.20;;;10.77;;
37483;SDS011;23337;52.212;9.926;2022-10-31T13:38:54;17.67;;;9.90;;
37483;SDS011;23337;52.212;9.926;2022-10-31T13:41:27;14.07;;;9.37;;
37483;SDS011;23337;52.212;9.926;2022-10-31T13:46:41;14.07;;;9.43;;
37483;SDS011;23337;52.212;9.926;2022-10-31T13:51:49;18.17;;;10.23;;
37483;SDS011;23337;52.212;9.926;2022-10-31T13:54:30;15.13;;;9.90;;
37483;SDS011;23337;52.212;9.926;2022-10-31T13:56:57;15.53;;;9.10;;
37483;SDS011;23337;52.212;9.926;2022-10-31T13:59:23;17.47;;;9.30;;
37483;SDS011;23337;52.212;9.926;2022-10-31T14:02:00;13.60;;;8.43;;
37483;SDS011;23337;52.212;9.926;2022-10-31T14:04:28;15.33;;;9.23;;
37483;SDS011;23337;52.212;9.926;2022-10-31T14:09:28;20.23;;;10.20;;
37483;SDS011;23337;52.212;9.926;2022-10-31T14:11:55;12.23;;;8.30;;
37483;SDS011;23337;52.212;9.926;2022-10-31T14:14:23;14.27;;;8.23;;
37483;SDS011;23337;52.212;9.926;2022-10-31T14:16:53;12.67;;;8.73;;
37483;SDS011;23337;52.212;9.926;2022-10-31T14:19:20;13.87;;;7.63;;
37483;SDS011;23337;52.212;9.926;2022-10-31T14:21:46;17.20;;;8.47;;
37483;SDS011;23337;52.212;9.926;2022-10-31T14:24:30;14.27;;;8.00;;
37483;SDS011;23337;52.212;9.926;2022-10-31T14:26:57;15.87;;;8.47;;
37483;SDS011;23337;52.212;9.926;2022-10-31T14:29:27;13.07;;;8.43;;
37483;SDS011;23337;52.212;9.926;2022-10-31T14:31:55;14.23;;;7.03;;
37483;SDS011;23337;52.212;9.926;2022-10-31T14:34:35;11.33;;;7.03;;
37483;SDS011;23337;52.212;9.926;2022-10-31T14:37:10;10.73;;;6.63;;
37483;SDS011;23337;52.212;9.926;2022-10-31T14:42:25;10.33;;;6.20;;
37483;SDS011;23337;52.212;9.926;2022-10-31T14:47:31;10.47;;;6.87;;
37483;SDS011;23337;52.212;9.926;2022-10-31T14:52:46;13.87;;;6.33;;
37483;SDS011;23337;52.212;9.926;2022-10-31T14:55:13;13.00;;;6.83;;
37483;SDS011;23337;52.212;9.926;2022-10-31T14:57:43;7.37;;;5.63;;
37483;SDS011;23337;52.212;9.926;2022-10-31T15:00:15;10.60;;;6.33;;
37483;SDS011;23337;52.212;9.926;2022-10-31T15:05:19;12.60;;;7.13;;
37483;SDS011;23337;52.212;9.926;2022-10-31T15:07:52;9.87;;;6.90;;
37483;SDS011;23337;52.212;9.926;2022-10-31T15:10:23;12.10;;;7.40;;
37483;SDS011;23337;52.212;9.926;2022-10-31T15:12:50;13.70;;;7.50;;
37483;SDS011;23337;52.212;9.926;2022-10-31T15:15:25;13.30;;;7.57;;
37483;SDS011;23337;52.212;9.926;2022-10-31T15:20:18;10.37;;;6.33;;
37483;SDS011;23337;52.212;9.926;2022-10-31T15:22:44;14.20;;;7.77;;
37483;SDS011;23337;52.212;9.926;2022-10-31T15:25:18;10.20;;;7.83;;
37483;SDS011;23337;52.212;9.926;2022-10-31T15:27:45;13.03;;;7.20;;
37483;SDS011;23337;52.212;9.926;2022-10-31T15:30:24;14.50;;;8.03;;
37483;SDS011;23337;52.212;9.926;2022-10-31T15:32:50;13.87;;;8.00;;
37483;SDS011;23337;52.212;9.926;2022-10-31T15:35:23;12.83;;;9.40;;
37483;SDS011;23337;52.212;9.926;2022-10-31T15:37:51;12.47;;;8.93;;
37483;SDS011;23337;52.212;9.926;2022-10-31T15:40:18;24.17;;;11.40;;
37483;SDS011;23337;52.212;9.926;2022-10-31T15:42:46;17.80;;;12.77;;
37483;SDS011;23337;52.212;9.926;2022-10-31T15:47:44;27.10;;;17.53;;
37483;SDS011;23337;52.212;9.926;2022-10-31T15:50:21;29.10;;;16.90;;
37483;SDS011;23337;52.212;9.926;2022-10-31T15:52:48;30.40;;;18.73;;
37483;SDS011;23337;52.212;9.926;2022-10-31T15:57:48;27.67;;;17.40;;
37483;SDS011;23337;52.212;9.926;2022-10-31T16:00:37;31.57;;;19.83;;
37483;SDS011;23337;52.212;9.926;2022-10-31T16:05:49;31.13;;;18.93;;
37483;SDS011;23337;52.212;9.926;2022-10-31T16:10:48;22.30;;;16.17;;
37483;SDS011;23337;52.212;9.926;2022-10-31T16:13:14;31.53;;;19.57;;
37483;SDS011;23337;52.212;9.926;2022-10-31T16:15:47;24.87;;;18.07;;
37483;SDS011;23337;52.212;9.926;2022-10-31T16:18:13;21.97;;;14.93;;
37483;SDS011;23337;52.212;9.926;2022-10-31T16:20:39;25.63;;;16.33;;
37483;SDS011;23337;52.212;9.926;2022-10-31T16:23:05;27.57;;;17.30;;
37483;SDS011;23337;52.212;9.926;2022-10-31T16:25:37;25.60;;;14.97;;
37483;SDS011;23337;52.212;9.926;2022-10-31T16:28:04;21.73;;;16.27;;
37483;SDS011;23337;52.212;9.926;2022-10-31T16:30:39;20.90;;;14.63;;
37483;SDS011;23337;52.212;9.926;2022-10-31T16:33:20;22.30;;;14.93;;
37483;SDS011;23337;52.212;9.926;2022-10-31T16:35:46;24.43;;;17.13;;
37483;SDS011;23337;52.212;9.926;2022-10-31T16:38:13;26.50;;;16.97;;
37483;SDS011;23337;52.212;9.926;2022-10-31T16:40:39;23.30;;;15.83;;
37483;SDS011;23337;52.212;9.926;2022-10-31T16:43:05;21.87;;;15.90;;
37483;SDS011;23337;52.212;9.926;2022-10-31T16:45:34;17.63;;;13.63;;
37483;SDS011;23337;52.212;9.926;2022-10-31T16:48:09;21.23;;;15.00;;
37483;SDS011;23337;52.212;9.926;2022-10-31T16:50:36;21.37;;;12.97;;
37483;SDS011;23337;52.212;9.926;2022-10-31T16:53:02;25.17;;;14.20;;